Time;durP1;ratioP1;P1;durP2;ratioP2;P2;SDS_P1;SDS_P2;PMS_P1;PMS_P2;Temp;Humidity;BMP_temperature;BMP_pressure;BME280_temperature;BME280_humidity;BME280_pressure;Samples;Min_cycle;Max_cycle;Signal;HPM_P1;HPM_P2
2021/05/08 00:01:16;;;;;;;11.63;4.68;;;;;;;11.66;74.24;100273.81;5032592;28;20033;-76
2021/05/08 00:03:42;;;;;;;10.07;5.18;;;;;;;11.68;73.20;100260.44;5009807;28;20037;-76
2021/05/08 00:06:10;;;;;;;8.65;4.65;;;;;;;11.70;73.26;100257.31;5020273;28;20029;-76
2021/05/08 00:08:35;;;;;;;10.70;4.38;;;;;;;11.71;73.33;100259.00;5010542;28;20057;-76
2021/05/08 00:11:01;;;;;;;10.48;4.78;;;;;;;11.68;73.56;100249.31;5031358;28;20037;-76
2021/05/08 00:13:26;;;;;;;14.30;4.43;;;;;;;11.65;74.09;100244.34;5035245;28;20055;-76
2021/05/08 00:15:52;;;;;;;7.88;3.95;;;;;;;11.67;74.35;100246.81;5038679;28;20037;-76
2021/05/08 00:18:18;;;;;;;12.38;4.07;;;;;;;11.67;74.54;100236.50;5029974;28;20045;-75
2021/05/08 00:20:43;;;;;;;7.45;3.58;;;;;;;11.66;74.57;100220.13;5030137;28;20402;-76
2021/05/08 00:23:09;;;;;;;7.85;3.28;;;;;;;11.67;74.08;100219.81;5018804;28;20383;-76
2021/05/08 00:25:34;;;;;;;10.25;2.97;;;;;;;11.65;75.36;100215.72;5022062;28;20034;-76
2021/05/08 00:28:00;;;;;;;10.73;3.22;;;;;;;11.68;76.27;100215.91;5011879;28;20505;-76
2021/05/08 00:30:25;;;;;;;9.35;2.95;;;;;;;11.65;75.93;100222.09;5034859;28;20037;-76
2021/05/08 00:32:51;;;;;;;10.13;3.47;;;;;;;11.69;75.98;100216.75;5029870;28;20037;-76
2021/05/08 00:35:16;;;;;;;8.50;2.90;;;;;;;11.66;76.21;100215.41;5029011;28;20033;-76
2021/05/08 00:37:43;;;;;;;11.48;2.83;;;;;;;11.65;76.07;100210.97;5043085;28;20119;-75
2021/05/08 00:40:09;;;;;;;13.30;2.78;;;;;;;11.67;77.01;100194.78;5033070;28;20482;-76
2021/05/08 00:42:35;;;;;;;11.48;2.80;;;;;;;11.64;77.65;100187.06;5035761;28;20053;-76
2021/05/08 00:45:00;;;;;;;9.52;3.38;;;;;;;11.65;76.75;100185.94;5034402;28;20041;-75
2021/05/08 00:47:26;;;;;;;13.20;3.17;;;;;;;11.65;77.41;100199.84;5032705;28;20033;-77
2021/05/08 00:49:51;;;;;;;9.15;3.30;;;;;;;11.60;78.25;100194.38;5037883;28;20479;-76
2021/05/08 00:52:17;;;;;;;8.40;2.38;;;;;;;11.60;78.11;100184.06;5035220;28;20033;-76
2021/05/08 00:54:43;;;;;;;8.07;2.97;;;;;;;11.60;77.45;100186.03;5016431;28;20643;-76
2021/05/08 00:57:09;;;;;;;6.45;2.60;;;;;;;11.61;77.31;100176.56;5030218;28;20041;-77
2021/05/08 00:59:37;;;;;;;9.35;2.85;;;;;;;11.62;77.59;100176.25;5040370;28;20045;-76
2021/05/08 01:02:03;;;;;;;10.15;3.08;;;;;;;11.62;78.15;100164.31;5017656;28;20044;-76
2021/05/08 01:04:32;;;;;;;7.75;2.60;;;;;;;11.61;78.47;100165.44;5034586;28;20033;-76
2021/05/08 01:07:01;;;;;;;10.80;2.72;;;;;;;11.58;77.92;100160.47;5012841;28;20037;-76
2021/05/08 01:09:26;;;;;;;9.70;2.60;;;;;;;11.57;78.83;100164.41;5029186;28;20037;-75
2021/05/08 01:11:52;;;;;;;10.30;2.78;;;;;;;11.57;79.29;100156.88;5034020;28;20092;-76
2021/05/08 01:14:18;;;;;;;10.27;3.13;;;;;;;11.58;79.28;100158.53;5067161;28;20022;-76
2021/05/08 01:16:44;;;;;;;8.15;2.75;;;;;;;11.57;79.41;100156.88;5020555;28;20060;-76
2021/05/08 01:19:11;;;;;;;9.43;3.20;;;;;;;11.57;78.27;100150.50;5003153;28;20033;-76
2021/05/08 01:21:37;;;;;;;7.15;2.90;;;;;;;11.58;78.94;100147.41;5015995;28;20490;-76
2021/05/08 01:24:04;;;;;;;11.07;3.90;;;;;;;11.58;78.78;100144.63;5018413;28;20034;-76
2021/05/08 01:26:29;;;;;;;12.00;3.05;;;;;;;11.57;78.63;100145.75;5016978;28;20053;-76
2021/05/08 01:28:55;;;;;;;9.98;2.88;;;;;;;11.53;80.90;100153.09;5048726;28;20064;-76
2021/05/08 01:31:20;;;;;;;10.55;3.10;;;;;;;11.56;78.37;100146.06;5034234;28;20458;-76
2021/05/08 01:33:46;;;;;;;13.13;3.00;;;;;;;11.58;79.29;100141.00;5009519;28;20030;-76
2021/05/08 01:36:12;;;;;;;10.50;2.72;;;;;;;11.58;78.55;100143.78;5029871;28;20397;-76
2021/05/08 01:38:37;;;;;;;10.10;2.78;;;;;;;11.58;78.29;100133.50;5000098;28;20080;-76
2021/05/08 01:41:06;;;;;;;11.13;3.10;;;;;;;11.59;78.42;100129.59;5028718;28;20029;-76
2021/05/08 01:43:31;;;;;;;10.45;3.15;;;;;;;11.58;80.17;100127.94;5020970;28;20112;-76
2021/05/08 01:45:57;;;;;;;8.85;2.70;;;;;;;11.59;78.54;100120.44;5027870;28;20034;-76
2021/05/08 01:48:22;;;;;;;9.02;2.92;;;;;;;11.61;79.06;100118.13;5049054;28;20445;-76
2021/05/08 01:50:48;;;;;;;12.98;3.15;;;;;;;11.61;79.44;100115.38;5030226;28;20032;-76
2021/05/08 01:53:14;;;;;;;9.55;3.10;;;;;;;11.62;79.90;100120.63;5006802;28;20040;-76
2021/05/08 01:55:39;;;;;;;12.43;3.72;;;;;;;11.60;78.55;100108.16;5004757;28;20033;-76
2021/05/08 01:58:05;;;;;;;6.97;2.70;;;;;;;11.62;78.95;100106.72;5031540;28;20052;-76
2021/05/08 02:00:35;;;;;;;8.60;2.95;;;;;;;11.65;79.97;100105.28;5034900;28;20118;-76
2021/05/08 02:03:01;;;;;;;13.60;3.60;;;;;;;11.59;80.68;100100.97;5031794;28;20564;-76
2021/05/08 02:05:27;;;;;;;10.90;2.88;;;;;;;11.63;79.23;100093.63;5019442;28;20021;-76
2021/05/08 02:07:53;;;;;;;11.60;3.15;;;;;;;11.64;79.68;100089.69;5029797;28;20108;-76
2021/05/08 02:10:19;;;;;;;8.20;2.90;;;;;;;11.65;79.91;100093.34;5031882;28;20026;-76
2021/05/08 02:12:44;;;;;;;9.32;3.60;;;;;;;11.61;79.70;100088.38;5019210;28;20039;-76
2021/05/08 02:15:12;;;;;;;8.88;3.30;;;;;;;11.60;78.98;100085.91;5064681;28;20032;-76
2021/05/08 02:17:37;;;;;;;13.75;3.42;;;;;;;11.62;78.58;100100.34;5033718;28;20107;-76
2021/05/08 02:20:10;;;;;;;9.90;3.35;;;;;;;11.61;78.37;100090.31;5031496;28;20080;-75
2021/05/08 02:22:35;;;;;;;7.72;3.00;;;;;;;11.60;79.11;100085.91;5032157;28;20103;-76
2021/05/08 02:25:02;;;;;;;9.68;3.55;;;;;;;11.60;78.96;100081.16;5061881;28;20060;-76
2021/05/08 02:27:28;;;;;;;7.22;3.10;;;;;;;11.63;80.58;100083.31;5047318;28;20038;-76
2021/05/08 02:29:53;;;;;;;8.60;3.38;;;;;;;11.65;80.64;100079.44;5032319;28;20044;-76
2021/05/08 02:32:19;;;;;;;11.60;3.10;;;;;;;11.65;80.72;100085.00;5031436;28;20402;-76
2021/05/08 02:34:44;;;;;;;9.40;2.83;;;;;;;11.67;80.40;100085.47;5013561;28;20034;-76
2021/05/08 02:37:10;;;;;;;10.55;3.38;;;;;;;11.66;79.28;100081.06;5009778;28;20050;-76
2021/05/08 02:39:35;;;;;;;12.30;3.60;;;;;;;11.63;80.51;100080.53;5014790;28;20030;-76
2021/05/08 02:42:01;;;;;;;8.60;3.30;;;;;;;11.66;80.52;100079.09;5025532;28;20033;-76
2021/05/08 02:44:26;;;;;;;11.27;3.72;;;;;;;11.66;79.98;100073.53;5046656;28;20030;-76
2021/05/08 02:46:52;;;;;;;9.27;3.70;;;;;;;11.67;80.46;100077.94;5030793;28;20371;-76
2021/05/08 02:49:17;;;;;;;10.98;3.42;;;;;;;11.68;81.09;100070.44;5036160;28;20044;-76
2021/05/08 02:51:43;;;;;;;11.68;4.03;;;;;;;11.67;81.13;100071.56;5028397;28;20029;-76
2021/05/08 02:54:08;;;;;;;10.93;3.58;;;;;;;11.66;80.90;100064.38;5021580;28;20058;-76
2021/05/08 02:56:34;;;;;;;10.98;3.72;;;;;;;11.67;80.68;100058.47;4990889;28;20061;-76
2021/05/08 02:58:59;;;;;;;8.73;3.72;;;;;;;11.69;81.05;100060.97;5062319;28;20029;-77
2021/05/08 03:01:25;;;;;;;11.32;3.42;;;;;;;11.72;80.92;100060.34;5022260;28;20032;-76
2021/05/08 03:03:50;;;;;;;10.82;3.50;;;;;;;11.72;80.17;100055.59;5029122;28;20398;-76
2021/05/08 03:06:16;;;;;;;10.95;3.85;;;;;;;11.69;82.22;100047.06;5029165;28;20029;-76
2021/05/08 03:08:41;;;;;;;13.35;4.57;;;;;;;11.69;81.78;100045.09;5046120;28;20025;-76
2021/05/08 03:11:07;;;;;;;12.98;4.45;;;;;;;11.71;80.75;100053.94;5026038;28;20038;-76
2021/05/08 03:13:32;;;;;;;14.68;4.50;;;;;;;11.73;80.61;100036.94;5029812;28;20060;-76
2021/05/08 03:15:58;;;;;;;10.90;3.85;;;;;;;11.74;81.11;100039.41;5033283;28;20033;-75
2021/05/08 03:18:23;;;;;;;11.10;3.70;;;;;;;11.72;81.55;100038.91;5029943;28;20490;-76
2021/05/08 03:20:49;;;;;;;11.20;4.78;;;;;;;11.74;80.31;100027.47;5019803;28;20025;-76
2021/05/08 03:23:14;;;;;;;7.68;3.63;;;;;;;11.74;81.53;100027.47;5048125;28;20398;-76
2021/05/08 03:25:40;;;;;;;10.20;4.13;;;;;;;11.76;81.72;100017.69;5013455;28;20063;-76
2021/05/08 03:28:05;;;;;;;10.52;4.32;;;;;;;11.74;80.17;100017.16;5062560;28;20029;-76
2021/05/08 03:30:31;;;;;;;7.28;3.63;;;;;;;11.79;80.93;100010.66;5058084;28;20036;-76
2021/05/08 03:32:56;;;;;;;13.48;5.00;;;;;;;11.79;82.02;100017.03;5009376;28;20032;-76
2021/05/08 03:35:22;;;;;;;13.27;4.30;;;;;;;11.79;81.18;100014.25;5015015;28;20037;-76
2021/05/08 03:37:47;;;;;;;13.40;4.72;;;;;;;11.77;80.67;100008.19;5030968;28;20050;-76
2021/05/08 03:40:13;;;;;;;13.45;4.78;;;;;;;11.78;81.44;100012.63;5031725;28;20029;-76
2021/05/08 03:42:39;;;;;;;16.25;5.05;;;;;;;11.78;81.85;100012.63;5018220;28;20546;-76
2021/05/08 03:45:05;;;;;;;7.78;4.38;;;;;;;11.81;81.16;100009.22;5043067;28;20585;-76
2021/05/08 03:47:31;;;;;;;16.83;4.85;;;;;;;11.82;81.61;100008.06;5042166;28;20061;-76
2021/05/08 03:49:57;;;;;;;14.73;5.22;;;;;;;11.82;81.53;99996.13;5012696;28;20028;-77
2021/05/08 03:52:23;;;;;;;11.45;5.05;;;;;;;11.84;81.76;99991.88;5013875;28;20030;-76
2021/05/08 03:54:48;;;;;;;11.70;4.63;;;;;;;11.85;81.44;99996.34;5062971;28;20080;-76
2021/05/08 03:57:14;;;;;;;14.05;5.38;;;;;;;11.84;82.31;99994.66;5018800;28;20041;-76
2021/05/08 03:59:40;;;;;;;13.13;4.55;;;;;;;11.86;82.60;99997.16;5063919;28;20040;-76
2021/05/08 04:02:06;;;;;;;14.32;4.70;;;;;;;11.85;83.00;99998.28;5003241;28;20079;-76
2021/05/08 04:04:31;;;;;;;11.52;5.35;;;;;;;11.85;83.02;99989.94;4999579;28;20034;-76
2021/05/08 04:06:57;;;;;;;15.52;4.95;;;;;;;11.84;82.98;99989.09;5034152;28;20389;-76
2021/05/08 04:09:23;;;;;;;15.45;5.40;;;;;;;11.83;83.44;99990.22;4976921;28;20036;-76
2021/05/08 04:11:48;;;;;;;12.30;5.13;;;;;;;11.83;82.82;99984.66;5017079;28;20030;-76
2021/05/08 04:14:14;;;;;;;15.00;5.78;;;;;;;11.88;83.36;99982.94;5036265;28;20378;-76
2021/05/08 04:16:40;;;;;;;13.20;5.40;;;;;;;11.86;82.28;99983.25;5018002;28;20052;-76
2021/05/08 04:19:05;;;;;;;19.25;6.30;;;;;;;11.86;83.88;99977.69;5008331;28;20030;-76
2021/05/08 04:21:31;;;;;;;11.88;5.53;;;;;;;11.89;83.46;99976.22;5059606;28;20029;-76
2021/05/08 04:23:57;;;;;;;16.88;6.80;;;;;;;11.89;83.73;99967.88;5002249;28;20057;-76
2021/05/08 04:26:23;;;;;;;14.23;6.32;;;;;;;11.89;83.88;99965.91;5049783;28;20026;-76
2021/05/08 04:28:49;;;;;;;16.85;6.45;;;;;;;11.90;84.57;99961.19;5048233;28;20113;-76
2021/05/08 04:31:14;;;;;;;16.70;6.57;;;;;;;11.89;84.86;99959.53;5036093;28;20029;-76
2021/05/08 04:33:40;;;;;;;17.83;6.65;;;;;;;11.90;85.90;99967.56;5049315;28;20484;-76
2021/05/08 04:36:05;;;;;;;17.92;7.13;;;;;;;11.91;85.63;99969.22;5019009;28;20053;-76
2021/05/08 04:38:31;;;;;;;14.20;6.95;;;;;;;11.95;85.01;99969.38;5020085;28;20045;-76
2021/05/08 04:40:57;;;;;;;20.55;6.68;;;;;;;11.93;85.76;99961.38;5014244;28;20063;-76
2021/05/08 04:43:22;;;;;;;14.88;5.95;;;;;;;11.95;84.80;99964.66;5001401;28;20034;-76
2021/05/08 04:45:48;;;;;;;13.48;6.00;;;;;;;11.95;84.88;99963.81;4993101;28;20038;-76
2021/05/08 04:48:27;;;;;;;18.88;5.97;;;;;;;11.96;84.45;99962.69;5028531;28;20116;-76
2021/05/08 04:50:53;;;;;;;15.02;6.25;;;;;;;11.97;84.68;99964.34;5024576;28;20029;-77
2021/05/08 04:53:19;;;;;;;18.38;6.80;;;;;;;11.98;85.75;99957.63;5028568;28;20517;-76
2021/05/08 04:55:48;;;;;;;14.23;6.47;;;;;;;11.98;85.37;99957.63;5030889;28;20098;-76
2021/05/08 04:58:14;;;;;;;16.25;6.60;;;;;;;11.99;85.38;99971.22;5017169;28;20049;-76
2021/05/08 05:00:39;;;;;;;22.40;7.78;;;;;;;12.00;84.63;99955.34;5030411;28;20034;-76
2021/05/08 05:03:05;;;;;;;24.58;7.93;;;;;;;12.01;85.57;99951.44;5025957;28;20018;-76
2021/05/08 05:05:30;;;;;;;20.90;7.65;;;;;;;12.02;86.53;99951.13;5005989;28;20356;-77
2021/05/08 05:07:56;;;;;;;14.63;7.03;;;;;;;12.04;86.17;99950.81;5035583;28;20034;-76
2021/05/08 05:10:21;;;;;;;16.63;7.22;;;;;;;12.05;86.28;99955.22;5029171;28;20033;-76
2021/05/08 05:12:48;;;;;;;18.70;7.38;;;;;;;12.07;86.48;99962.13;5030558;28;20233;-75
2021/05/08 05:15:16;;;;;;;14.75;6.60;;;;;;;12.07;85.74;99953.78;5033735;28;20083;-75
2021/05/08 05:17:43;;;;;;;19.75;7.00;;;;;;;12.09;86.48;99959.03;5031679;28;20038;-76
2021/05/08 05:20:09;;;;;;;21.92;8.00;;;;;;;12.12;87.46;99963.13;5031448;28;20037;-76
2021/05/08 05:22:34;;;;;;;18.70;6.93;;;;;;;12.13;86.95;99962.81;5032392;28;20091;-76
2021/05/08 05:25:00;;;;;;;19.95;8.38;;;;;;;12.15;87.45;99954.16;5034381;28;20026;-76
2021/05/08 05:27:26;;;;;;;22.08;7.50;;;;;;;12.15;86.96;99963.31;5027968;28;20025;-76
2021/05/08 05:29:51;;;;;;;14.20;6.78;;;;;;;12.18;87.22;99959.09;5030259;28;20037;-76
2021/05/08 05:32:17;;;;;;;18.85;7.05;;;;;;;12.20;88.33;99963.19;5032485;28;20034;-76
2021/05/08 05:34:42;;;;;;;20.77;7.18;;;;;;;12.22;87.75;99962.88;5030061;28;20371;-75
2021/05/08 05:37:08;;;;;;;18.83;7.72;;;;;;;12.24;87.35;99966.97;5033054;28;20053;-76
2021/05/08 05:39:34;;;;;;;17.45;7.78;;;;;;;12.25;87.23;99965.81;5031770;28;20394;-77
2021/05/08 05:41:59;;;;;;;14.35;6.38;;;;;;;12.30;87.04;99962.91;5023352;28;20034;-77
2021/05/08 05:44:25;;;;;;;17.60;7.65;;;;;;;12.31;88.27;99960.94;5028053;28;20029;-77
2021/05/08 05:46:50;;;;;;;19.40;7.57;;;;;;;12.33;87.78;99963.41;5019318;28;20037;-77
2021/05/08 05:49:16;;;;;;;20.98;7.40;;;;;;;12.35;87.33;99963.94;5035068;28;20068;-76
2021/05/08 05:51:41;;;;;;;17.77;7.10;;;;;;;12.36;87.99;99963.59;5017952;28;20034;-77
2021/05/08 05:54:07;;;;;;;18.05;7.10;;;;;;;12.39;87.78;99957.38;5023961;28;20095;-77
2021/05/08 05:56:32;;;;;;;19.13;7.63;;;;;;;12.42;87.80;99961.50;5056779;28;20038;-76
2021/05/08 05:58:58;;;;;;;21.60;7.20;;;;;;;12.44;88.84;99962.00;5044621;28;20040;-76
2021/05/08 06:01:23;;;;;;;17.27;7.05;;;;;;;12.45;87.72;99967.28;5017208;28;20037;-76
2021/05/08 06:03:50;;;;;;;15.15;7.38;;;;;;;12.49;88.64;99973.00;5064586;28;20034;-76
2021/05/08 06:06:16;;;;;;;15.25;6.90;;;;;;;12.52;87.92;99964.81;5031055;28;20546;-76
2021/05/08 06:08:41;;;;;;;19.13;6.65;;;;;;;12.54;88.04;99964.53;5024785;28;20032;-76
2021/05/08 06:11:07;;;;;;;14.27;6.45;;;;;;;12.57;88.41;99971.41;5031116;28;20033;-76
2021/05/08 06:13:33;;;;;;;15.98;6.57;;;;;;;12.61;88.98;99967.66;5048066;28;20025;-76
2021/05/08 06:15:59;;;;;;;15.10;6.45;;;;;;;12.67;89.00;99977.50;5018548;28;20021;-76
2021/05/08 06:18:25;;;;;;;15.15;6.50;;;;;;;12.71;90.26;99969.34;5015111;28;20033;-76
2021/05/08 06:20:50;;;;;;;13.85;6.05;;;;;;;12.72;89.95;99970.97;5017781;28;20085;-76
2021/05/08 06:23:17;;;;;;;15.65;6.18;;;;;;;12.76;90.12;99966.44;5015004;28;20041;-76
2021/05/08 06:25:43;;;;;;;13.45;6.30;;;;;;;12.81;90.17;99963.47;5046712;28;20037;-76
2021/05/08 06:28:08;;;;;;;11.50;5.70;;;;;;;12.85;90.22;99963.66;5056397;28;20098;-76
2021/05/08 06:30:34;;;;;;;11.50;5.43;;;;;;;12.87;89.68;99969.72;5032060;28;20501;-76
2021/05/08 06:32:59;;;;;;;11.55;5.07;;;;;;;12.92;90.25;99970.38;5014275;28;20029;-76
2021/05/08 06:35:25;;;;;;;9.10;4.65;;;;;;;12.96;90.00;99970.59;5033216;28;20041;-76
2021/05/08 06:37:50;;;;;;;11.93;5.15;;;;;;;13.00;89.71;99974.34;5034364;28;20046;-76
2021/05/08 06:40:16;;;;;;;14.63;5.05;;;;;;;13.06;89.82;99973.06;5027751;28;20037;-76
2021/05/08 06:42:42;;;;;;;9.07;5.18;;;;;;;13.10;90.29;99971.28;5032995;28;20029;-76
2021/05/08 06:45:08;;;;;;;10.70;4.90;;;;;;;13.13;89.57;99965.06;5026062;28;20050;-76
2021/05/08 06:47:34;;;;;;;11.77;4.55;;;;;;;13.17;89.18;99965.22;5038076;28;20482;-77
2021/05/08 06:50:00;;;;;;;9.60;4.60;;;;;;;13.24;88.81;99971.16;5021958;28;20092;-76
2021/05/08 06:52:26;;;;;;;10.73;4.97;;;;;;;13.30;89.55;99969.88;5031237;28;20029;-76
2021/05/08 06:54:51;;;;;;;11.98;4.85;;;;;;;13.35;89.16;99978.09;5015407;28;20022;-77
2021/05/08 06:57:17;;;;;;;13.07;4.80;;;;;;;13.43;90.80;99979.25;5049284;28;20033;-76
2021/05/08 06:59:42;;;;;;;12.45;4.55;;;;;;;13.45;89.31;99970.53;5029089;28;20037;-76
2021/05/08 07:02:08;;;;;;;9.20;3.80;;;;;;;13.50;88.50;99970.38;5030918;28;20060;-77
2021/05/08 07:04:34;;;;;;;9.20;4.55;;;;;;;13.55;89.39;99976.63;5029077;28;20478;-76
2021/05/08 07:06:59;;;;;;;9.52;3.95;;;;;;;13.59;88.29;99974.00;5015914;28;20022;-76
2021/05/08 07:09:25;;;;;;;10.38;4.22;;;;;;;13.63;88.07;99975.81;5035255;28;20394;-76
2021/05/08 07:11:50;;;;;;;13.45;4.38;;;;;;;13.71;88.85;99962.22;5014530;28;20026;-76
2021/05/08 07:14:16;;;;;;;12.65;4.40;;;;;;;13.75;89.54;99969.56;5026298;28;20029;-76
2021/05/08 07:16:42;;;;;;;12.77;5.00;;;;;;;13.78;87.79;99968.09;5031083;28;20036;-77
2021/05/08 07:19:07;;;;;;;10.32;4.03;;;;;;;13.83;87.71;99965.16;5064781;28;20467;-76
2021/05/08 07:21:33;;;;;;;12.82;4.35;;;;;;;13.90;87.45;99971.06;5018549;28;20026;-76
2021/05/08 07:23:58;;;;;;;12.68;4.22;;;;;;;13.99;86.89;99963.50;5016505;28;20041;-76
2021/05/08 07:26:24;;;;;;;12.57;4.30;;;;;;;14.08;86.80;99960.69;5015246;28;20045;-76
2021/05/08 07:28:49;;;;;;;14.93;4.03;;;;;;;14.15;86.13;99963.81;5036044;28;20034;-77
2021/05/08 07:31:15;;;;;;;11.68;4.03;;;;;;;14.24;85.59;99963.78;5027614;28;20037;-76
2021/05/08 07:33:40;;;;;;;13.90;4.03;;;;;;;14.32;85.05;99954.56;5064022;28;20029;-76
2021/05/08 07:36:06;;;;;;;12.25;3.90;;;;;;;14.42;86.06;99947.78;5060728;28;20057;-76
2021/05/08 07:38:31;;;;;;;10.32;3.80;;;;;;;14.51;85.46;99956.94;5049063;28;20717;-76
2021/05/08 07:40:57;;;;;;;10.13;3.90;;;;;;;14.61;84.61;99955.81;5028443;28;20030;-76
2021/05/08 07:43:23;;;;;;;10.15;3.60;;;;;;;14.72;85.80;99971.06;5032510;28;20029;-76
2021/05/08 07:45:49;;;;;;;9.70;2.85;;;;;;;14.81;82.29;99954.25;5027907;28;20026;-72
2021/05/08 07:48:14;;;;;;;15.95;3.92;;;;;;;14.85;80.26;99958.84;5019497;28;20037;-72
2021/05/08 07:50:40;;;;;;;9.75;3.55;;;;;;;14.94;79.41;99954.00;5015445;28;20072;-72
2021/05/08 07:53:06;;;;;;;12.70;3.75;;;;;;;15.04;79.18;99958.38;5025058;28;20025;-72
2021/05/08 07:55:32;;;;;;;11.65;3.80;;;;;;;15.15;79.60;99964.41;5035914;28;20037;-71
2021/05/08 07:57:57;;;;;;;14.30;3.40;;;;;;;15.25;80.87;99949.25;5033617;28;20080;-71
2021/05/08 08:00:23;;;;;;;10.65;3.17;;;;;;;15.37;81.06;99960.50;5037416;28;20036;-71
2021/05/08 08:02:52;;;;;;;9.68;3.55;;;;;;;15.52;82.19;99947.91;4989452;28;20045;-72
2021/05/08 08:05:17;;;;;;;10.20;3.33;;;;;;;15.63;81.72;99951.94;5018171;28;20033;-71
2021/05/08 08:07:43;;;;;;;9.85;3.15;;;;;;;15.71;80.99;99953.88;5034898;28;20712;-71
2021/05/08 08:10:09;;;;;;;7.90;3.13;;;;;;;15.81;81.09;99956.22;5022658;28;20478;-71
2021/05/08 08:12:34;;;;;;;8.88;3.15;;;;;;;15.93;79.57;99947.06;5048361;28;20071;-71
2021/05/08 08:15:00;;;;;;;6.18;2.50;;;;;;;16.02;79.60;99963.81;4999192;28;20033;-72
2021/05/08 08:17:28;;;;;;;12.63;3.17;;;;;;;16.10;78.67;99957.28;5029387;28;20120;-71
2021/05/08 08:19:53;;;;;;;16.33;3.30;;;;;;;16.14;77.26;99955.44;5033015;28;20030;-73
2021/05/08 08:22:19;;;;;;;9.27;3.30;;;;;;;16.18;75.23;99953.56;5018041;28;20389;-72
2021/05/08 08:24:44;;;;;;;8.40;3.22;;;;;;;16.23;74.65;99952.53;5029968;28;20118;-72
2021/05/08 08:27:10;;;;;;;8.32;2.95;;;;;;;16.24;74.26;99943.81;4996308;28;20048;-73
2021/05/08 08:29:36;;;;;;;9.82;2.92;;;;;;;16.24;75.01;99943.81;5032340;28;20160;-72
2021/05/08 08:32:01;;;;;;;7.70;2.72;;;;;;;16.32;74.18;99947.66;5031028;28;20085;-72
2021/05/08 08:34:27;;;;;;;14.05;3.28;;;;;;;16.34;74.68;99938.91;5050014;28;20022;-72
2021/05/08 08:36:52;;;;;;;11.32;2.75;;;;;;;16.43;74.26;99942.44;4990486;28;20050;-72
2021/05/08 08:39:18;;;;;;;9.90;2.70;;;;;;;16.47;74.31;99934.97;5029111;28;20087;-72
2021/05/08 08:41:43;;;;;;;9.65;3.13;;;;;;;16.57;73.82;99931.72;5002830;28;20083;-72
2021/05/08 08:44:10;;;;;;;12.75;3.22;;;;;;;16.68;73.75;99926.47;5037456;28;20038;-70
2021/05/08 08:46:42;;;;;;;6.47;2.60;;;;;;;16.90;74.72;99920.44;5033348;28;20071;-78
2021/05/08 08:49:08;;;;;;;13.90;2.90;;;;;;;17.13;75.02;99933.97;5041232;28;20029;-78
2021/05/08 08:51:34;;;;;;;14.10;3.45;;;;;;;17.41;74.24;99917.19;5065013;28;20441;-78
2021/05/08 08:54:00;;;;;;;7.57;2.70;;;;;;;17.67;73.64;99928.03;5027382;28;20060;-78
2021/05/08 08:56:38;;;;;;;7.65;2.72;;;;;;;17.88;72.28;99925.03;5038143;28;20030;-81
2021/05/08 08:59:14;;;;;;;13.23;2.90;;;;;;;18.07;72.39;99918.75;5033015;28;20059;-80
2021/05/08 09:01:42;;;;;;;7.43;2.55;;;;;;;18.23;72.58;99913.16;5024380;28;20508;-78
2021/05/08 09:04:09;;;;;;;7.78;2.22;;;;;;;18.38;72.25;99914.34;5026284;28;20026;-78
2021/05/08 09:06:34;;;;;;;7.18;2.90;;;;;;;18.50;71.09;99914.28;5035224;28;20037;-79
2021/05/08 09:09:00;;;;;;;7.78;2.22;;;;;;;18.64;71.19;99903.41;5031772;28;20032;-79
2021/05/08 09:11:25;;;;;;;9.52;2.30;;;;;;;18.77;70.11;99897.69;5029245;28;20049;-78
2021/05/08 09:14:17;;;;;;;10.35;2.58;;;;;;;18.93;69.77;99906.94;5048639;28;20026;-78
2021/05/08 09:17:13;;;;;;;7.82;2.53;;;;;;;19.10;70.11;99905.72;5028004;28;20095;-79
2021/05/08 09:19:43;;;;;;;8.40;2.25;;;;;;;19.23;68.86;99912.88;5029426;28;20052;-78
2021/05/08 09:22:21;;;;;;;8.40;2.47;;;;;;;19.35;69.15;99901.47;5001134;28;20034;-79
2021/05/08 09:25:00;;;;;;;7.97;2.72;;;;;;;19.45;68.59;99902.91;5048645;28;20040;-78
2021/05/08 09:27:39;;;;;;;5.50;2.28;;;;;;;19.56;68.05;99900.34;5041536;28;20120;-78
2021/05/08 09:30:13;;;;;;;6.22;2.00;;;;;;;19.69;68.35;99910.28;5033801;28;20033;-79
2021/05/08 09:32:43;;;;;;;6.72;1.95;;;;;;;19.81;67.60;99893.25;5028596;28;20523;-79
2021/05/08 09:35:15;;;;;;;6.40;2.28;;;;;;;19.90;67.08;99911.94;5032422;28;20032;-78
2021/05/08 09:37:41;;;;;;;7.03;2.37;;;;;;;19.96;66.46;99896.34;5007056;28;20057;-72
2021/05/08 09:40:20;;;;;;;7.30;2.25;;;;;;;20.06;67.38;99895.75;4997401;28;20032;-71
2021/05/08 09:42:56;;;;;;;6.10;2.20;;;;;;;20.17;67.50;99891.13;5027418;28;20037;-72
2021/05/08 09:45:26;;;;;;;8.60;2.30;;;;;;;20.28;66.79;99892.16;5001725;28;20033;-72
2021/05/08 09:47:52;;;;;;;6.90;2.30;;;;;;;20.39;66.78;99899.97;4998011;28;20021;-72
2021/05/08 09:50:22;;;;;;;8.75;2.50;;;;;;;20.54;66.49;99893.44;5003172;28;20091;-71
2021/05/08 09:52:55;;;;;;;5.90;1.98;;;;;;;20.61;65.43;99899.19;4995686;28;20042;-71
2021/05/08 09:55:22;;;;;;;5.38;1.90;;;;;;;20.66;64.99;99895.22;5013575;28;20426;-71
2021/05/08 09:58:06;;;;;;;5.85;2.03;;;;;;;20.71;64.74;99904.19;5015501;28;20032;-76
2021/05/08 10:00:38;;;;;;;5.78;2.00;;;;;;;20.77;64.21;99896.22;5021837;28;20037;-77
2021/05/08 10:03:12;;;;;;;7.57;1.90;;;;;;;20.79;64.07;99898.69;5029223;28;20131;-76
2021/05/08 10:05:42;;;;;;;6.80;2.10;;;;;;;20.88;64.86;99890.75;5022670;28;20109;-76
2021/05/08 10:08:08;;;;;;;6.38;1.95;;;;;;;20.97;64.18;99891.28;5035628;28;20043;-76
2021/05/08 10:10:34;;;;;;;6.07;1.85;;;;;;;20.99;63.78;99894.56;5030731;28;20033;-76
2021/05/08 10:13:05;;;;;;;6.32;1.90;;;;;;;21.02;63.95;99890.97;5021798;28;20474;-76
2021/05/08 10:15:31;;;;;;;5.90;2.08;;;;;;;21.03;63.45;99886.94;5016062;28;20025;-76
2021/05/08 10:17:57;;;;;;;7.68;2.08;;;;;;;21.03;63.71;99892.59;5033418;28;20041;-76
2021/05/08 10:20:22;;;;;;;6.30;1.88;;;;;;;21.09;63.46;99878.97;5031545;28;20033;-76
2021/05/08 10:22:59;;;;;;;5.15;1.80;;;;;;;21.13;63.25;99880.66;5014655;28;20029;-76
2021/05/08 10:25:25;;;;;;;5.30;1.92;;;;;;;21.19;62.51;99879.13;5026194;28;20041;-76
2021/05/08 10:27:51;;;;;;;5.63;1.88;;;;;;;21.24;62.81;99880.00;5040022;28;20028;-76
2021/05/08 10:30:42;;;;;;;7.65;1.65;;;;;;;21.29;62.68;99876.84;5040089;28;20030;-80
2021/05/08 10:34:06;;;;;;;4.63;1.70;;;;;;;21.34;62.52;99873.69;5015992;28;20075;-79
2021/05/08 10:36:43;;;;;;;6.75;1.80;;;;;;;21.39;62.22;99874.19;4987360;28;20050;-80
2021/05/08 10:39:09;;;;;;;8.65;1.90;;;;;;;21.37;60.96;99882.25;4973598;28;20042;-75
2021/05/08 10:41:51;;;;;;;11.85;2.30;;;;;;;21.22;60.30;99871.09;4987898;28;20734;-76
2021/05/08 10:44:45;;;;;;;8.73;2.03;;;;;;;21.02;60.38;99871.22;4975477;28;20035;-75
2021/05/08 10:47:14;;;;;;;6.53;1.63;;;;;;;21.02;60.82;99882.50;4985383;28;20047;-76
2021/05/08 10:49:40;;;;;;;12.77;2.25;;;;;;;20.93;61.13;99863.03;4971018;28;20042;-75
2021/05/08 10:52:06;;;;;;;5.07;1.98;;;;;;;20.87;61.26;99870.19;4992654;28;20042;-75
2021/05/08 10:54:44;;;;;;;13.25;2.35;;;;;;;20.79;61.22;99867.66;4973947;28;20047;-76
2021/05/08 10:57:25;;;;;;;11.07;2.05;;;;;;;20.68;60.94;99854.16;4984923;28;20490;-76
2021/05/08 11:00:00;;;;;;;12.20;1.75;;;;;;;20.75;61.23;99859.94;4989868;28;20102;-76
2021/05/08 11:02:41;;;;;;;7.47;1.92;;;;;;;20.68;61.00;99857.00;4992699;28;20085;-75
2021/05/08 11:05:34;;;;;;;5.93;1.77;;;;;;;20.73;60.90;99851.03;4988682;28;20041;-76
2021/05/08 11:08:00;;;;;;;10.23;1.88;;;;;;;20.74;61.03;99847.00;4985395;28;20050;-76
2021/05/08 11:10:32;;;;;;;8.63;1.88;;;;;;;20.72;61.11;99855.03;4979686;28;20046;-74
2021/05/08 11:13:10;;;;;;;6.50;1.70;;;;;;;20.81;60.96;99853.94;4990328;28;20040;-74
2021/05/08 11:15:54;;;;;;;7.30;1.70;;;;;;;20.80;60.92;99850.31;5039013;28;20025;-74
2021/05/08 11:18:43;;;;;;;6.55;2.33;;;;;;;20.85;60.75;99846.38;5052476;28;20427;-75
2021/05/08 11:21:08;;;;;;;7.13;1.90;;;;;;;20.91;60.63;99839.19;5069436;28;20086;-74
2021/05/08 11:23:49;;;;;;;7.57;1.60;;;;;;;20.91;60.58;99848.47;5050257;28;20036;-73
2021/05/08 11:26:30;;;;;;;6.97;2.38;;;;;;;20.98;60.41;99840.13;5048440;28;20064;-73
2021/05/08 11:29:01;;;;;;;10.63;1.83;;;;;;;21.05;60.05;99830.94;5052029;28;20035;-73